sensor_id;sensor_type;location;lat;lon;timestamp;pressure;altitude;pressure_sealevel;temperature;humidity
69351;BME280;57106;51.446;-2.606;2023-01-27T00:01:14;103253.34;;;6.89;65.80
69351;BME280;57106;51.446;-2.606;2023-01-27T00:03:33;103253.19;;;6.69;66.40
69351;BME280;57106;51.446;-2.606;2023-01-27T00:05:58;103251.12;;;6.63;66.70
69351;BME280;57106;51.446;-2.606;2023-01-27T00:08:23;103255.98;;;7.00;65.33
69351;BME280;57106;51.446;-2.606;2023-01-27T00:10:49;103252.56;;;6.85;65.54
69351;BME280;57106;51.446;-2.606;2023-01-27T00:13:20;103249.92;;;6.87;65.54
69351;BME280;57106;51.446;-2.606;2023-01-27T00:15:41;103241.03;;;6.78;66.07
69351;BME280;57106;51.446;-2.606;2023-01-27T00:18:11;103238.95;;;6.63;66.45
69351;BME280;57106;51.446;-2.606;2023-01-27T00:20:32;103237.98;;;6.39;66.92
69351;BME280;57106;51.446;-2.606;2023-01-27T00:22:58;103240.40;;;6.84;65.95
69351;BME280;57106;51.446;-2.606;2023-01-27T00:25:23;103242.69;;;7.00;65.46
69351;BME280;57106;51.446;-2.606;2023-01-27T00:27:49;103241.42;;;7.05;65.40
69351;BME280;57106;51.446;-2.606;2023-01-27T00:32:40;103232.85;;;6.99;65.42
69351;BME280;57106;51.446;-2.606;2023-01-27T00:35:07;103227.04;;;6.84;65.93
69351;BME280;57106;51.446;-2.606;2023-01-27T00:37:32;103219.66;;;7.17;65.05
69351;BME280;57106;51.446;-2.606;2023-01-27T00:39:59;103222.47;;;7.28;65.12
69351;BME280;57106;51.446;-2.606;2023-01-27T00:44:49;103215.02;;;6.76;66.62
69351;BME280;57106;51.446;-2.606;2023-01-27T00:47:15;103211.13;;;6.92;66.18
69351;BME280;57106;51.446;-2.606;2023-01-27T00:49:41;103206.00;;;7.08;65.69
69351;BME280;57106;51.446;-2.606;2023-01-27T00:52:06;103198.14;;;7.33;64.74
69351;BME280;57106;51.446;-2.606;2023-01-27T00:54:32;103197.21;;;7.03;65.35
69351;BME280;57106;51.446;-2.606;2023-01-27T00:57:01;103195.24;;;7.16;65.02
69351;BME280;57106;51.446;-2.606;2023-01-27T00:59:23;103197.60;;;6.94;65.46
69351;BME280;57106;51.446;-2.606;2023-01-27T01:01:48;103204.15;;;6.94;65.32
69351;BME280;57106;51.446;-2.606;2023-01-27T01:04:14;103201.04;;;7.17;65.01
69351;BME280;57106;51.446;-2.606;2023-01-27T01:06:44;103195.26;;;7.16;64.98
69351;BME280;57106;51.446;-2.606;2023-01-27T01:09:06;103195.04;;;7.24;64.53
69351;BME280;57106;51.446;-2.606;2023-01-27T01:16:25;103202.91;;;7.49;63.73
69351;BME280;57106;51.446;-2.606;2023-01-27T01:26:08;103192.98;;;8.06;62.12
69351;BME280;57106;51.446;-2.606;2023-01-27T02:00:07;103164.34;;;7.50;62.21
69351;BME280;57106;51.446;-2.606;2023-01-27T02:02:31;103168.74;;;7.57;61.85
69351;BME280;57106;51.446;-2.606;2023-01-27T02:04:59;103166.10;;;7.37;62.31
69351;BME280;57106;51.446;-2.606;2023-01-27T02:07:26;103165.94;;;7.46;61.46
69351;BME280;57106;51.446;-2.606;2023-01-27T02:09:46;103167.07;;;7.19;62.51
69351;BME280;57106;51.446;-2.606;2023-01-27T02:12:12;103157.54;;;7.02;62.02
69351;BME280;57106;51.446;-2.606;2023-01-27T02:14:42;103155.10;;;6.92;62.32
69351;BME280;57106;51.446;-2.606;2023-01-27T02:17:03;103156.67;;;6.67;62.65
69351;BME280;57106;51.446;-2.606;2023-01-27T02:19:53;103148.11;;;6.42;63.26
69351;BME280;57106;51.446;-2.606;2023-01-27T02:21:55;103137.30;;;6.70;63.12
69351;BME280;57106;51.446;-2.606;2023-01-27T02:24:20;103137.20;;;6.85;62.35
69351;BME280;57106;51.446;-2.606;2023-01-27T02:26:47;103141.25;;;6.85;62.51
69351;BME280;57106;51.446;-2.606;2023-01-27T02:29:13;103138.68;;;6.70;62.73
69351;BME280;57106;51.446;-2.606;2023-01-27T02:31:37;103139.00;;;6.76;62.50
69351;BME280;57106;51.446;-2.606;2023-01-27T02:34:05;103138.74;;;6.24;63.63
69351;BME280;57106;51.446;-2.606;2023-01-27T02:36:30;103134.93;;;6.36;63.49
69351;BME280;57106;51.446;-2.606;2023-01-27T02:38:55;103131.79;;;6.48;63.14
69351;BME280;57106;51.446;-2.606;2023-01-27T02:41:22;103131.75;;;6.57;62.62
69351;BME280;57106;51.446;-2.606;2023-01-27T02:43:47;103126.69;;;6.36;63.29
69351;BME280;57106;51.446;-2.606;2023-01-27T02:46:12;103126.06;;;6.20;63.34
69351;BME280;57106;51.446;-2.606;2023-01-27T02:48:37;103127.91;;;6.45;62.63
69351;BME280;57106;51.446;-2.606;2023-01-27T02:51:12;103134.84;;;6.47;62.31
69351;BME280;57106;51.446;-2.606;2023-01-27T02:53:29;103129.60;;;6.62;61.70
69351;BME280;57106;51.446;-2.606;2023-01-27T02:55:56;103129.00;;;6.59;61.72
69351;BME280;57106;51.446;-2.606;2023-01-27T02:58:22;103131.65;;;6.90;61.25
69351;BME280;57106;51.446;-2.606;2023-01-27T03:00:46;103126.86;;;6.62;61.80
69351;BME280;57106;51.446;-2.606;2023-01-27T03:03:11;103131.00;;;6.49;62.36
69351;BME280;57106;51.446;-2.606;2023-01-27T03:05:37;103135.73;;;6.84;61.12
69351;BME280;57106;51.446;-2.606;2023-01-27T03:08:06;103134.18;;;6.66;61.59
69351;BME280;57106;51.446;-2.606;2023-01-27T03:10:28;103133.31;;;6.64;61.70
69351;BME280;57106;51.446;-2.606;2023-01-27T03:15:20;103137.17;;;6.30;62.97
69351;BME280;57106;51.446;-2.606;2023-01-27T03:17:45;103138.29;;;6.43;62.50
69351;BME280;57106;51.446;-2.606;2023-01-27T03:20:12;103139.65;;;6.01;63.67
69351;BME280;57106;51.446;-2.606;2023-01-27T03:22:42;103133.22;;;5.84;64.29
69351;BME280;57106;51.446;-2.606;2023-01-27T03:25:02;103128.61;;;5.86;64.46
69351;BME280;57106;51.446;-2.606;2023-01-27T03:27:31;103128.63;;;5.70;65.06
69351;BME280;57106;51.446;-2.606;2023-01-27T03:29:54;103123.90;;;5.57;65.46
69351;BME280;57106;51.446;-2.606;2023-01-27T03:32:20;103125.44;;;5.53;65.54
69351;BME280;57106;51.446;-2.606;2023-01-27T03:34:45;103121.27;;;5.45;65.99
69351;BME280;57106;51.446;-2.606;2023-01-27T03:37:12;103117.54;;;5.38;66.09
69351;BME280;57106;51.446;-2.606;2023-01-27T03:39:37;103113.03;;;5.57;65.73
69351;BME280;57106;51.446;-2.606;2023-01-27T03:42:03;103111.49;;;5.62;65.67
69351;BME280;57106;51.446;-2.606;2023-01-27T03:44:28;103108.12;;;5.64;65.44
69351;BME280;57106;51.446;-2.606;2023-01-27T03:46:54;103105.25;;;5.61;65.32
69351;BME280;57106;51.446;-2.606;2023-01-27T03:49:20;103104.25;;;5.54;65.79
69351;BME280;57106;51.446;-2.606;2023-01-27T03:51:46;103103.86;;;5.51;65.61
69351;BME280;57106;51.446;-2.606;2023-01-27T03:54:11;103102.08;;;5.37;66.00
69351;BME280;57106;51.446;-2.606;2023-01-27T03:56:37;103101.60;;;5.33;66.17
69351;BME280;57106;51.446;-2.606;2023-01-27T03:59:03;103098.38;;;5.35;66.33
69351;BME280;57106;51.446;-2.606;2023-01-27T04:01:28;103099.65;;;5.34;66.21
69351;BME280;57106;51.446;-2.606;2023-01-27T04:03:54;103100.02;;;5.16;67.00
69351;BME280;57106;51.446;-2.606;2023-01-27T04:06:22;103103.23;;;5.24;66.59
69351;BME280;57106;51.446;-2.606;2023-01-27T04:08:46;103095.12;;;5.28;66.72
69351;BME280;57106;51.446;-2.606;2023-01-27T04:11:12;103097.75;;;5.53;65.91
69351;BME280;57106;51.446;-2.606;2023-01-27T04:13:37;103102.84;;;5.30;66.58
69351;BME280;57106;51.446;-2.606;2023-01-27T04:16:03;103100.17;;;5.45;66.46
69351;BME280;57106;51.446;-2.606;2023-01-27T04:18:29;103096.26;;;5.36;66.60
69351;BME280;57106;51.446;-2.606;2023-01-27T04:25:54;103095.37;;;5.36;66.79
69351;BME280;57106;51.446;-2.606;2023-01-27T04:28:17;103099.11;;;5.46;66.22
69351;BME280;57106;51.446;-2.606;2023-01-27T04:33:04;103097.99;;;5.61;66.01
69351;BME280;57106;51.446;-2.606;2023-01-27T04:35:29;103100.03;;;5.67;65.94
69351;BME280;57106;51.446;-2.606;2023-01-27T04:37:55;103103.62;;;5.92;65.35
69351;BME280;57106;51.446;-2.606;2023-01-27T04:40:20;103104.73;;;6.05;64.80
69351;BME280;57106;51.446;-2.606;2023-01-27T04:42:52;103105.99;;;5.76;65.45
69351;BME280;57106;51.446;-2.606;2023-01-27T04:45:12;103103.75;;;5.63;66.22
69351;BME280;57106;51.446;-2.606;2023-01-27T04:47:38;103100.54;;;5.93;65.45
69351;BME280;57106;51.446;-2.606;2023-01-27T04:50:06;103101.81;;;5.62;66.34
69351;BME280;57106;51.446;-2.606;2023-01-27T04:52:34;103094.81;;;5.59;66.51
69351;BME280;57106;51.446;-2.606;2023-01-27T04:54:54;103096.82;;;5.84;65.97
69351;BME280;57106;51.446;-2.606;2023-01-27T04:57:20;103095.52;;;5.25;67.39
69351;BME280;57106;51.446;-2.606;2023-01-27T04:59:48;103100.13;;;5.04;68.30
69351;BME280;57106;51.446;-2.606;2023-01-27T05:02:13;103102.77;;;4.98;68.53
69351;BME280;57106;51.446;-2.606;2023-01-27T05:04:38;103101.12;;;5.21;68.03
69351;BME280;57106;51.446;-2.606;2023-01-27T05:07:03;103098.09;;;5.31;67.49
69351;BME280;57106;51.446;-2.606;2023-01-27T05:09:29;103103.00;;;5.41;67.64
69351;BME280;57106;51.446;-2.606;2023-01-27T05:11:55;103107.80;;;5.37;67.58
69351;BME280;57106;51.446;-2.606;2023-01-27T05:14:20;103111.20;;;5.32;67.59
69351;BME280;57106;51.446;-2.606;2023-01-27T05:16:48;103107.34;;;5.23;68.27
69351;BME280;57106;51.446;-2.606;2023-01-27T05:19:14;103104.27;;;5.28;68.16
69351;BME280;57106;51.446;-2.606;2023-01-27T05:21:38;103101.57;;;5.36;68.18
69351;BME280;57106;51.446;-2.606;2023-01-27T05:24:04;103101.62;;;5.65;67.05
69351;BME280;57106;51.446;-2.606;2023-01-27T05:26:29;103100.92;;;5.47;67.75
69351;BME280;57106;51.446;-2.606;2023-01-27T05:29:04;103101.20;;;5.60;67.71
69351;BME280;57106;51.446;-2.606;2023-01-27T05:31:23;103094.53;;;5.33;68.02
69351;BME280;57106;51.446;-2.606;2023-01-27T05:33:49;103097.87;;;5.11;69.07
69351;BME280;57106;51.446;-2.606;2023-01-27T05:36:14;103100.01;;;5.04;69.16
69351;BME280;57106;51.446;-2.606;2023-01-27T05:38:39;103100.55;;;5.18;68.96
69351;BME280;57106;51.446;-2.606;2023-01-27T05:41:06;103101.05;;;5.10;69.11
69351;BME280;57106;51.446;-2.606;2023-01-27T05:43:30;103099.81;;;5.14;69.06
69351;BME280;57106;51.446;-2.606;2023-01-27T05:46:02;103097.57;;;5.00;69.46
69351;BME280;57106;51.446;-2.606;2023-01-27T05:48:21;103105.65;;;4.91;69.88
69351;BME280;57106;51.446;-2.606;2023-01-27T05:50:56;103109.57;;;4.79;70.60
69351;BME280;57106;51.446;-2.606;2023-01-27T05:53:13;103107.79;;;4.82;70.46
69351;BME280;57106;51.446;-2.606;2023-01-27T05:55:37;103108.28;;;4.86;70.44
69351;BME280;57106;51.446;-2.606;2023-01-27T06:00:29;103109.36;;;4.78;70.95
69351;BME280;57106;51.446;-2.606;2023-01-27T06:02:54;103109.32;;;4.98;70.51
69351;BME280;57106;51.446;-2.606;2023-01-27T06:05:18;103113.41;;;4.82;70.94
69351;BME280;57106;51.446;-2.606;2023-01-27T06:07:44;103117.22;;;4.90;70.98
69351;BME280;57106;51.446;-2.606;2023-01-27T06:10:17;103114.01;;;4.96;70.90
69351;BME280;57106;51.446;-2.606;2023-01-27T06:12:38;103114.58;;;4.86;71.01
69351;BME280;57106;51.446;-2.606;2023-01-27T06:20:02;103122.04;;;4.98;71.50
69351;BME280;57106;51.446;-2.606;2023-01-27T06:22:18;103114.44;;;5.21;70.68
69351;BME280;57106;51.446;-2.606;2023-01-27T06:24:43;103121.17;;;5.19;70.65
69351;BME280;57106;51.446;-2.606;2023-01-27T06:29:35;103116.42;;;5.20;71.12
69351;BME280;57106;51.446;-2.606;2023-01-27T06:35:01;103116.57;;;5.01;72.00
69351;BME280;57106;51.446;-2.606;2023-01-27T06:46:34;103116.07;;;5.16;72.34
69351;BME280;57106;51.446;-2.606;2023-01-27T06:49:01;103121.72;;;5.15;71.93
69351;BME280;57106;51.446;-2.606;2023-01-27T06:51:25;103125.48;;;5.09;72.18
69351;BME280;57106;51.446;-2.606;2023-01-27T06:53:51;103127.50;;;5.55;70.70
69351;BME280;57106;51.446;-2.606;2023-01-27T06:56:18;103125.44;;;4.98;72.36
69351;BME280;57106;51.446;-2.606;2023-01-27T06:58:42;103120.98;;;5.08;72.34
69351;BME280;57106;51.446;-2.606;2023-01-27T07:01:10;103118.80;;;5.25;71.79
69351;BME280;57106;51.446;-2.606;2023-01-27T07:03:33;103113.41;;;5.42;71.49
69351;BME280;57106;51.446;-2.606;2023-01-27T07:06:00;103125.17;;;5.33;71.41
69351;BME280;57106;51.446;-2.606;2023-01-27T07:08:33;103131.27;;;4.94;72.93
69351;BME280;57106;51.446;-2.606;2023-01-27T07:13:17;103124.88;;;5.06;73.00
69351;BME280;57106;51.446;-2.606;2023-01-27T07:15:42;103124.88;;;5.07;72.97
69351;BME280;57106;51.446;-2.606;2023-01-27T07:18:09;103123.84;;;5.35;72.55
69351;BME280;57106;51.446;-2.606;2023-01-27T07:20:35;103121.51;;;5.38;72.66
69351;BME280;57106;51.446;-2.606;2023-01-27T07:23:04;103128.77;;;5.13;72.85
69351;BME280;57106;51.446;-2.606;2023-01-27T07:25:26;103125.65;;;5.02;73.53
69351;BME280;57106;51.446;-2.606;2023-01-27T07:27:49;103128.14;;;4.83;74.42
69351;BME280;57106;51.446;-2.606;2023-01-27T07:30:15;103132.71;;;5.18;73.44
69351;BME280;57106;51.446;-2.606;2023-01-27T07:32:40;103132.43;;;4.90;73.87
69351;BME280;57106;51.446;-2.606;2023-01-27T07:35:06;103133.72;;;4.84;74.43
69351;BME280;57106;51.446;-2.606;2023-01-27T07:37:32;103130.24;;;4.94;74.49
69351;BME280;57106;51.446;-2.606;2023-01-27T07:39:56;103126.99;;;5.16;73.62
69351;BME280;57106;51.446;-2.606;2023-01-27T07:42:22;103130.92;;;5.09;73.62
69351;BME280;57106;51.446;-2.606;2023-01-27T07:44:52;103129.71;;;5.00;74.30
69351;BME280;57106;51.446;-2.606;2023-01-27T07:47:14;103128.50;;;4.76;74.92
69351;BME280;57106;51.446;-2.606;2023-01-27T07:49:38;103130.30;;;5.33;73.57
69351;BME280;57106;51.446;-2.606;2023-01-27T07:52:04;103130.68;;;5.14;73.73
69351;BME280;57106;51.446;-2.606;2023-01-27T07:54:38;103131.80;;;5.02;74.59
69351;BME280;57106;51.446;-2.606;2023-01-27T07:57:00;103132.30;;;5.01;75.69
69351;BME280;57106;51.446;-2.606;2023-01-27T07:59:21;103134.80;;;5.04;75.14
69351;BME280;57106;51.446;-2.606;2023-01-27T08:01:47;103135.29;;;5.01;75.10
69351;BME280;57106;51.446;-2.606;2023-01-27T08:04:12;103129.64;;;5.06;75.32
69351;BME280;57106;51.446;-2.606;2023-01-27T08:06:38;103128.49;;;5.16;74.98
69351;BME280;57106;51.446;-2.606;2023-01-27T08:09:03;103137.62;;;5.12;75.63
69351;BME280;57106;51.446;-2.606;2023-01-27T08:11:30;103143.38;;;4.83;76.26
69351;BME280;57106;51.446;-2.606;2023-01-27T08:13:55;103140.90;;;4.75;76.98
69351;BME280;57106;51.446;-2.606;2023-01-27T08:16:24;103144.16;;;4.84;77.23
69351;BME280;57106;51.446;-2.606;2023-01-27T08:18:48;103148.91;;;4.79;77.41
69351;BME280;57106;51.446;-2.606;2023-01-27T08:21:12;103144.77;;;4.73;77.44
69351;BME280;57106;51.446;-2.606;2023-01-27T08:23:37;103151.03;;;4.92;76.97
69351;BME280;57106;51.446;-2.606;2023-01-27T08:26:04;103150.79;;;5.00;76.40
69351;BME280;57106;51.446;-2.606;2023-01-27T08:28:31;103157.32;;;4.88;76.51
69351;BME280;57106;51.446;-2.606;2023-01-27T08:31:01;103160.96;;;5.00;76.37
69351;BME280;57106;51.446;-2.606;2023-01-27T08:33:20;103160.36;;;4.89;76.85
69351;BME280;57106;51.446;-2.606;2023-01-27T08:35:44;103161.59;;;5.00;76.43
69351;BME280;57106;51.446;-2.606;2023-01-27T08:38:12;103167.26;;;5.06;76.92
69351;BME280;57106;51.446;-2.606;2023-01-27T08:40:37;103170.72;;;5.07;77.05
69351;BME280;57106;51.446;-2.606;2023-01-27T08:43:00;103173.18;;;5.05;76.52
69351;BME280;57106;51.446;-2.606;2023-01-27T08:45:27;103175.83;;;5.09;76.64
69351;BME280;57106;51.446;-2.606;2023-01-27T08:47:52;103181.64;;;5.06;76.31
69351;BME280;57106;51.446;-2.606;2023-01-27T08:50:18;103181.92;;;5.17;75.78
69351;BME280;57106;51.446;-2.606;2023-01-27T08:52:44;103184.76;;;5.33;75.33
69351;BME280;57106;51.446;-2.606;2023-01-27T08:55:09;103181.61;;;5.08;75.61
69351;BME280;57106;51.446;-2.606;2023-01-27T08:57:35;103183.24;;;5.10;75.38
69351;BME280;57106;51.446;-2.606;2023-01-27T09:00:00;103187.66;;;5.57;74.33
69351;BME280;57106;51.446;-2.606;2023-01-27T09:02:26;103189.42;;;5.26;74.77
69351;BME280;57106;51.446;-2.606;2023-01-27T09:04:54;103189.57;;;5.29;74.93
69351;BME280;57106;51.446;-2.606;2023-01-27T09:07:17;103202.61;;;5.47;74.23
69351;BME280;57106;51.446;-2.606;2023-01-27T09:09:44;103202.88;;;5.37;74.28
69351;BME280;57106;51.446;-2.606;2023-01-27T09:12:11;103202.16;;;5.72;73.57
69351;BME280;57106;51.446;-2.606;2023-01-27T09:14:36;103196.83;;;5.38;73.87
69351;BME280;57106;51.446;-2.606;2023-01-27T09:17:03;103194.67;;;5.53;73.32
69351;BME280;57106;51.446;-2.606;2023-01-27T09:19:32;103198.14;;;5.90;72.44
69351;BME280;57106;51.446;-2.606;2023-01-27T09:21:54;103200.18;;;6.02;71.34
69351;BME280;57106;51.446;-2.606;2023-01-27T09:24:25;103206.40;;;5.92;71.22
69351;BME280;57106;51.446;-2.606;2023-01-27T09:26:47;103208.35;;;6.28;70.47
69351;BME280;57106;51.446;-2.606;2023-01-27T09:29:08;103207.98;;;5.98;71.18
69351;BME280;57106;51.446;-2.606;2023-01-27T09:31:33;103204.10;;;5.80;71.64
69351;BME280;57106;51.446;-2.606;2023-01-27T09:33:59;103207.03;;;5.51;72.85
69351;BME280;57106;51.446;-2.606;2023-01-27T09:36:26;103215.19;;;5.51;73.19
69351;BME280;57106;51.446;-2.606;2023-01-27T09:41:30;103219.68;;;5.93;72.52
69351;BME280;57106;51.446;-2.606;2023-01-27T09:43:55;103222.29;;;5.93;71.61
69351;BME280;57106;51.446;-2.606;2023-01-27T09:46:27;103224.63;;;5.95;71.33
69351;BME280;57106;51.446;-2.606;2023-01-27T09:48:46;103230.24;;;5.57;72.65
69351;BME280;57106;51.446;-2.606;2023-01-27T09:51:09;103235.97;;;5.43;73.60
69351;BME280;57106;51.446;-2.606;2023-01-27T09:53:42;103232.56;;;5.29;74.36
69351;BME280;57106;51.446;-2.606;2023-01-27T09:55:54;103232.01;;;5.64;73.47
69351;BME280;57106;51.446;-2.606;2023-01-27T09:58:22;103239.80;;;5.59;73.41
69351;BME280;57106;51.446;-2.606;2023-01-27T10:00:48;103245.62;;;5.45;74.10
69351;BME280;57106;51.446;-2.606;2023-01-27T10:05:41;103241.71;;;5.69;71.43
69351;BME280;57106;51.446;-2.606;2023-01-27T10:08:15;103238.06;;;5.44;72.67
69351;BME280;57106;51.446;-2.606;2023-01-27T10:10:37;103242.38;;;5.60;72.93
69351;BME280;57106;51.446;-2.606;2023-01-27T10:13:04;103245.93;;;5.52;73.31
69351;BME280;57106;51.446;-2.606;2023-01-27T10:15:24;103242.83;;;5.47;73.46
69351;BME280;57106;51.446;-2.606;2023-01-27T10:17:45;103244.34;;;5.57;73.13
69351;BME280;57106;51.446;-2.606;2023-01-27T10:20:13;103243.70;;;5.64;72.47
69351;BME280;57106;51.446;-2.606;2023-01-27T10:22:39;103239.93;;;5.38;72.98
69351;BME280;57106;51.446;-2.606;2023-01-27T10:25:07;103239.09;;;5.55;72.80
69351;BME280;57106;51.446;-2.606;2023-01-27T10:27:22;103245.95;;;5.45;72.83
69351;BME280;57106;51.446;-2.606;2023-01-27T10:29:54;103241.50;;;5.41;73.35
69351;BME280;57106;51.446;-2.606;2023-01-27T10:32:20;103249.98;;;5.46;72.68
69351;BME280;57106;51.446;-2.606;2023-01-27T10:34:45;103247.32;;;5.54;73.00
69351;BME280;57106;51.446;-2.606;2023-01-27T10:37:12;103249.50;;;5.68;72.75
69351;BME280;57106;51.446;-2.606;2023-01-27T10:39:39;103252.10;;;5.84;72.56
69351;BME280;57106;51.446;-2.606;2023-01-27T10:42:06;103246.63;;;5.60;72.88
69351;BME280;57106;51.446;-2.606;2023-01-27T10:44:31;103248.79;;;5.93;72.35
69351;BME280;57106;51.446;-2.606;2023-01-27T10:46:56;103244.78;;;5.96;71.34
69351;BME280;57106;51.446;-2.606;2023-01-27T10:49:13;103249.25;;;6.20;71.08
69351;BME280;57106;51.446;-2.606;2023-01-27T10:51:40;103245.48;;;6.27;70.53
69351;BME280;57106;51.446;-2.606;2023-01-27T10:56:33;103247.02;;;5.77;72.34
69351;BME280;57106;51.446;-2.606;2023-01-27T11:03:50;103234.52;;;6.62;69.82
69351;BME280;57106;51.446;-2.606;2023-01-27T11:42:34;103203.53;;;6.38;69.27
69351;BME280;57106;51.446;-2.606;2023-01-27T11:47:26;103197.75;;;6.80;67.89
69351;BME280;57106;51.446;-2.606;2023-01-27T11:49:51;103195.26;;;6.40;68.21
69351;BME280;57106;51.446;-2.606;2023-01-27T11:52:20;103197.84;;;6.50;68.20
69351;BME280;57106;51.446;-2.606;2023-01-27T11:54:45;103199.90;;;6.45;68.09
69351;BME280;57106;51.446;-2.606;2023-01-27T11:57:16;103190.44;;;6.61;67.79
69351;BME280;57106;51.446;-2.606;2023-01-27T11:59:36;103186.95;;;6.70;67.23
69351;BME280;57106;51.446;-2.606;2023-01-27T12:02:11;103182.63;;;6.61;67.65
69351;BME280;57106;51.446;-2.606;2023-01-27T12:04:29;103182.15;;;6.62;66.86
69351;BME280;57106;51.446;-2.606;2023-01-27T12:06:52;103177.59;;;6.62;66.72
69351;BME280;57106;51.446;-2.606;2023-01-27T12:09:30;103175.73;;;6.64;66.82
69351;BME280;57106;51.446;-2.606;2023-01-27T12:11:40;103177.15;;;6.85;66.64
69351;BME280;57106;51.446;-2.606;2023-01-27T12:14:15;103176.49;;;6.71;66.59
69351;BME280;57106;51.446;-2.606;2023-01-27T12:16:41;103175.33;;;6.62;67.05
69351;BME280;57106;51.446;-2.606;2023-01-27T12:19:01;103174.88;;;6.67;67.07
69351;BME280;57106;51.446;-2.606;2023-01-27T12:21:33;103175.73;;;6.92;66.53
69351;BME280;57106;51.446;-2.606;2023-01-27T12:23:50;103168.33;;;6.99;66.35
69351;BME280;57106;51.446;-2.606;2023-01-27T12:26:13;103163.70;;;6.72;65.88
69351;BME280;57106;51.446;-2.606;2023-01-27T12:28:42;103168.71;;;6.72;65.74
69351;BME280;57106;51.446;-2.606;2023-01-27T12:31:08;103166.33;;;6.94;65.30
69351;BME280;57106;51.446;-2.606;2023-01-27T12:33:31;103157.93;;;6.86;65.46
69351;BME280;57106;51.446;-2.606;2023-01-27T12:35:58;103157.85;;;7.02;64.68
69351;BME280;57106;51.446;-2.606;2023-01-27T12:38:22;103159.45;;;6.74;65.91
69351;BME280;57106;51.446;-2.606;2023-01-27T12:40:47;103153.94;;;6.72;64.62
69351;BME280;57106;51.446;-2.606;2023-01-27T12:43:18;103152.43;;;6.69;65.48
69351;BME280;57106;51.446;-2.606;2023-01-27T12:45:38;103151.20;;;6.70;65.37
69351;BME280;57106;51.446;-2.606;2023-01-27T12:50:31;103148.86;;;6.40;65.96
69351;BME280;57106;51.446;-2.606;2023-01-27T12:53:04;103143.30;;;6.29;66.21
69351;BME280;57106;51.446;-2.606;2023-01-27T12:55:28;103139.35;;;6.23;66.16
69351;BME280;57106;51.446;-2.606;2023-01-27T12:57:46;103132.50;;;6.46;65.97
69351;BME280;57106;51.446;-2.606;2023-01-27T13:00:14;103129.42;;;6.60;65.80
69351;BME280;57106;51.446;-2.606;2023-01-27T13:02:38;103123.02;;;6.77;65.23
69351;BME280;57106;51.446;-2.606;2023-01-27T13:05:05;103126.58;;;6.44;65.14
69351;BME280;57106;51.446;-2.606;2023-01-27T13:07:40;103122.45;;;6.19;66.16
69351;BME280;57106;51.446;-2.606;2023-01-27T13:09:55;103118.57;;;6.30;65.99
69351;BME280;57106;51.446;-2.606;2023-01-27T13:12:23;103113.33;;;6.59;65.04
69351;BME280;57106;51.446;-2.606;2023-01-27T13:19:44;103108.97;;;6.90;62.09
69351;BME280;57106;51.446;-2.606;2023-01-27T13:22:03;103106.90;;;6.92;62.62
69351;BME280;57106;51.446;-2.606;2023-01-27T13:24:33;103111.25;;;6.73;61.80
69351;BME280;57106;51.446;-2.606;2023-01-27T13:26:59;103112.05;;;6.66;62.43
69351;BME280;57106;51.446;-2.606;2023-01-27T13:29:24;103105.32;;;6.55;62.13
69351;BME280;57106;51.446;-2.606;2023-01-27T13:31:50;103100.54;;;6.55;62.39
69351;BME280;57106;51.446;-2.606;2023-01-27T13:34:20;103106.65;;;6.73;61.96
69351;BME280;57106;51.446;-2.606;2023-01-27T13:36:41;103110.04;;;6.36;62.56
69351;BME280;57106;51.446;-2.606;2023-01-27T13:39:10;103103.20;;;6.28;62.76
69351;BME280;57106;51.446;-2.606;2023-01-27T13:41:35;103096.35;;;6.48;62.89
69351;BME280;57106;51.446;-2.606;2023-01-27T13:44:00;103099.29;;;6.60;62.41
69351;BME280;57106;51.446;-2.606;2023-01-27T13:46:23;103105.63;;;6.69;61.65
69351;BME280;57106;51.446;-2.606;2023-01-27T13:48:47;103097.06;;;6.50;61.39
69351;BME280;57106;51.446;-2.606;2023-01-27T13:51:13;103098.33;;;6.59;61.28
69351;BME280;57106;51.446;-2.606;2023-01-27T13:53:37;103101.81;;;6.69;61.42
69351;BME280;57106;51.446;-2.606;2023-01-27T13:56:11;103099.38;;;6.49;61.35
69351;BME280;57106;51.446;-2.606;2023-01-27T13:58:51;103101.55;;;6.69;61.53
69351;BME280;57106;51.446;-2.606;2023-01-27T14:01:04;103107.82;;;6.67;61.06
69351;BME280;57106;51.446;-2.606;2023-01-27T14:13:18;103109.55;;;6.83;60.97
69351;BME280;57106;51.446;-2.606;2023-01-27T14:15:34;103112.48;;;6.90;60.57
69351;BME280;57106;51.446;-2.606;2023-01-27T14:17:58;103113.19;;;6.77;61.24
69351;BME280;57106;51.446;-2.606;2023-01-27T14:20:30;103110.22;;;6.72;61.28
69351;BME280;57106;51.446;-2.606;2023-01-27T14:22:52;103112.13;;;6.46;61.73
69351;BME280;57106;51.446;-2.606;2023-01-27T14:25:19;103110.37;;;6.55;61.58
69351;BME280;57106;51.446;-2.606;2023-01-27T14:27:41;103107.65;;;6.56;61.46
69351;BME280;57106;51.446;-2.606;2023-01-27T14:30:08;103105.61;;;6.55;61.65
69351;BME280;57106;51.446;-2.606;2023-01-27T14:35:05;103109.21;;;6.54;61.96
69351;BME280;57106;51.446;-2.606;2023-01-27T14:42:20;103114.84;;;6.77;60.59
69351;BME280;57106;51.446;-2.606;2023-01-27T14:47:08;103107.01;;;7.13;59.55
69351;BME280;57106;51.446;-2.606;2023-01-27T14:49:40;103108.84;;;7.10;59.95
69351;BME280;57106;51.446;-2.606;2023-01-27T14:54:29;103111.43;;;6.76;60.06
69351;BME280;57106;51.446;-2.606;2023-01-27T14:56:48;103109.34;;;7.01;60.34
69351;BME280;57106;51.446;-2.606;2023-01-27T14:59:23;103113.23;;;7.33;59.29
69351;BME280;57106;51.446;-2.606;2023-01-27T15:01:40;103116.84;;;6.82;59.97
69351;BME280;57106;51.446;-2.606;2023-01-27T15:04:14;103111.52;;;6.62;60.46
69351;BME280;57106;51.446;-2.606;2023-01-27T15:06:29;103111.56;;;6.88;60.60
69351;BME280;57106;51.446;-2.606;2023-01-27T15:08:56;103107.73;;;7.09;60.17
69351;BME280;57106;51.446;-2.606;2023-01-27T15:11:28;103115.43;;;6.84;60.44
69351;BME280;57106;51.446;-2.606;2023-01-27T15:13:52;103114.14;;;6.74;61.03
69351;BME280;57106;51.446;-2.606;2023-01-27T15:16:21;103102.89;;;6.72;60.82
69351;BME280;57106;51.446;-2.606;2023-01-27T15:21:10;103106.71;;;6.86;60.74
69351;BME280;57106;51.446;-2.606;2023-01-27T15:23:37;103106.40;;;6.80;60.83
69351;BME280;57106;51.446;-2.606;2023-01-27T15:25:57;103101.43;;;6.82;60.48